Valinhos, Brazil
Current Conditions -  °F | °C
As of 3:00 AM on Saturday 29 Nov 2014 (Local Time) from SBKP Reporting Station
Few Clouds Few Clouds  
Wind Chill: 68°   Ceiling: Unl
Heat Index: 68°   Visibility: 6mi
Dew Point: 61°   Wind: 14mph
Humidity: 78%   Direction: 130°SE
Pressure: 30.03"   Gusts: NA
Location:  22.97°S, 47°W
Report Text: SBKP 290500Z 13012KT 9999 FEW025 20/16 Q1017
Loading
Personal Weather Stations






























Interactive Weather Map New forecast layout! Learn more

10-Day Weather Forecast

Advertisements
Track Severe Weather on mobile